Time;durP1;ratioP1;P1;durP2;ratioP2;P2;SDS_P1;SDS_P2;PMS_P1;PMS_P2;Temp;Humidity;BMP_temperature;BMP_pressure;BME280_temperature;BME280_humidity;BME280_pressure;Samples;Min_cycle;Max_cycle;Signal;HPM_P1;HPM_P2
2023/10/29 00:02:22;;;;;;;0.10;0.10;;;;;;;-144.99;100.00;67352.69;4932893;28;20544;-76
2023/10/29 00:04:47;;;;;;;0.50;0.50;;;;;;;-144.99;100.00;67352.69;4932663;28;20550;-76
2023/10/29 00:07:13;;;;;;;0.00;0.00;;;;;;;-144.99;100.00;67352.69;4958701;23;20286;-79
2023/10/29 00:09:38;;;;;;;0.40;0.37;;;;;;;-144.99;100.00;67352.69;4943829;28;20195;-80
2023/10/29 00:12:03;;;;;;;0.20;0.20;;;;;;;-144.99;100.00;67352.69;4940634;29;20552;-79
2023/10/29 00:14:29;;;;;;;0.00;0.00;;;;;;;-144.99;100.00;67352.69;4941534;28;20267;-79
2023/10/29 00:16:54;;;;;;;15.40;0.93;;;;;;;-144.99;100.00;67352.69;4942137;29;20275;-79
2023/10/29 00:19:19;;;;;;;0.20;0.20;;;;;;;-144.99;100.00;67352.69;4958525;29;20187;-79
2023/10/29 00:21:45;;;;;;;0.00;0.00;;;;;;;-144.99;100.00;67352.69;4944927;29;20214;-80
2023/10/29 00:24:10;;;;;;;0.00;0.00;;;;;;;-144.99;100.00;67352.69;4970968;28;20207;-80
2023/10/29 00:26:35;;;;;;;0.50;0.50;;;;;;;-144.99;100.00;67352.69;4966144;28;20199;-80
2023/10/29 00:29:00;;;;;;;0.10;0.10;;;;;;;-144.99;100.00;67352.69;4945510;28;20538;-79
2023/10/29 00:31:26;;;;;;;0.00;0.00;;;;;;;-144.99;100.00;67352.69;4980838;28;20207;-79
2023/10/29 00:33:52;;;;;;;4.73;1.67;;;;;;;-144.99;100.00;67352.69;4953456;28;20625;-79
2023/10/29 00:36:17;;;;;;;0.00;0.00;;;;;;;-144.99;100.00;67352.69;4947488;28;20215;-79
2023/10/29 00:38:42;;;;;;;1.73;1.73;;;;;;;-144.99;100.00;67352.69;4943531;29;20215;-79
2023/10/29 00:41:08;;;;;;;0.33;0.33;;;;;;;-144.99;100.00;67352.69;4941521;28;20294;-80
2023/10/29 00:43:45;;;;;;;0.00;0.00;;;;;;;-144.99;100.00;67352.69;4940877;28;20210;-79
2023/10/29 00:46:12;;;;;;;0.30;0.30;;;;;;;-144.99;100.00;67352.69;4940698;28;20182;-80
2023/10/29 00:48:37;;;;;;;0.00;0.00;;;;;;;-144.99;100.00;67352.69;4938394;28;20662;-79
2023/10/29 00:51:03;;;;;;;0.00;0.00;;;;;;;-144.99;100.00;67352.69;4997308;28;20250;-79
2023/10/29 00:53:29;;;;;;;0.00;0.00;;;;;;;-144.99;100.00;67352.69;5003095;28;20168;-79
2023/10/29 00:55:55;;;;;;;0.50;0.50;;;;;;;-144.99;100.00;67352.69;5001996;28;20194;-79
2023/10/29 00:58:20;;;;;;;0.00;0.00;;;;;;;-144.99;100.00;67352.69;4951073;28;20183;-79
2023/10/29 01:00:45;;;;;;;0.00;0.00;;;;;;;-144.99;100.00;67352.69;4950536;28;20203;-79
2023/10/29 01:03:11;;;;;;;0.40;0.40;;;;;;;-144.99;100.00;67352.69;4951304;28;20247;-79
2023/10/29 01:05:38;;;;;;;0.03;0.03;;;;;;;-144.99;100.00;67352.69;4950220;28;20186;-79
2023/10/29 01:08:05;;;;;;;0.20;0.20;;;;;;;-144.99;100.00;67352.69;4950665;28;20575;-79
2023/10/29 01:10:31;;;;;;;0.00;0.00;;;;;;;-144.99;100.00;67352.69;4949229;28;20203;-80
2023/10/29 01:12:57;;;;;;;0.00;0.00;;;;;;;-144.99;100.00;67352.69;4960962;28;20242;-79
2023/10/29 01:15:22;;;;;;;1.40;0.23;;;;;;;-144.99;100.00;67352.69;4977373;28;20175;-79
2023/10/29 01:17:47;;;;;;;0.13;0.07;;;;;;;-144.99;100.00;67352.69;4990950;28;20247;-79
2023/10/29 01:20:13;;;;;;;0.20;0.20;;;;;;;-144.99;100.00;67352.69;4991583;28;20175;-79
2023/10/29 01:22:38;;;;;;;0.00;0.00;;;;;;;-144.99;100.00;67352.69;4948417;29;20183;-79
2023/10/29 01:25:08;;;;;;;0.00;0.00;;;;;;;-144.99;100.00;67352.69;4951022;28;20186;-79
2023/10/29 01:27:33;;;;;;;0.00;0.00;;;;;;;-144.99;100.00;67352.69;4952806;29;20175;-79
2023/10/29 01:29:59;;;;;;;3.20;0.30;;;;;;;-144.99;100.00;67352.69;4994327;28;20179;-79
2023/10/29 01:32:24;;;;;;;0.07;0.07;;;;;;;-144.99;100.00;67352.69;4994008;28;20280;-79
2023/10/29 01:34:50;;;;;;;0.60;0.20;;;;;;;-144.99;100.00;67352.69;4952817;28;20481;-79
2023/10/29 01:37:15;;;;;;;0.00;0.00;;;;;;;-144.99;100.00;67352.69;4952217;28;20207;-79
2023/10/29 01:39:41;;;;;;;0.27;0.27;;;;;;;-144.99;100.00;67352.69;4952004;28;20186;-79
2023/10/29 01:42:06;;;;;;;0.00;0.00;;;;;;;-144.99;100.00;67352.69;4952077;28;20195;-79
2023/10/29 01:44:32;;;;;;;0.10;0.10;;;;;;;-144.99;100.00;67352.69;4951108;28;20190;-79
2023/10/29 01:46:57;;;;;;;0.00;0.00;;;;;;;-144.99;100.00;67352.69;4993919;28;20217;-79
2023/10/29 01:49:22;;;;;;;0.50;0.50;;;;;;;-144.99;100.00;67352.69;4994121;28;20194;-79
2023/10/29 01:51:49;;;;;;;0.00;0.00;;;;;;;-144.99;100.00;67352.69;4991999;28;20282;-79
2023/10/29 01:54:15;;;;;;;0.00;0.00;;;;;;;-144.99;100.00;67352.69;4976547;28;20293;-79
2023/10/29 01:56:40;;;;;;;0.00;0.00;;;;;;;-144.99;100.00;67352.69;4967581;28;20219;-79
2023/10/29 01:59:06;;;;;;;0.50;0.50;;;;;;;-144.99;100.00;67352.69;5010473;28;20251;-79
2023/10/29 02:01:31;;;;;;;0.00;0.00;;;;;;;-144.99;100.00;67352.69;4972854;28;20333;-79
2023/10/29 02:03:56;;;;;;;0.00;0.00;;;;;;;-144.99;100.00;67352.69;4950160;28;20218;-80
2023/10/29 02:06:22;;;;;;;0.00;0.00;;;;;;;-144.99;100.00;67352.69;4979993;28;20195;-79
2023/10/29 02:08:48;;;;;;;0.00;0.00;;;;;;;-144.99;100.00;67352.69;4960704;28;20245;-80
2023/10/29 02:11:13;;;;;;;0.00;0.00;;;;;;;-144.99;100.00;67352.69;4948510;28;20207;-79
2023/10/29 02:13:38;;;;;;;0.00;0.00;;;;;;;-144.99;100.00;67352.69;4950272;28;20218;-79
2023/10/29 02:16:04;;;;;;;0.30;0.20;;;;;;;-144.99;100.00;67352.69;4990143;28;20203;-80
2023/10/29 02:18:30;;;;;;;0.77;0.77;;;;;;;-144.99;100.00;67352.69;4947998;29;20191;-80
2023/10/29 02:20:55;;;;;;;0.40;0.40;;;;;;;-144.99;100.00;67352.69;4991712;28;20211;-80
2023/10/29 02:23:20;;;;;;;0.30;0.30;;;;;;;-144.99;100.00;67352.69;4991077;28;20190;-79
2023/10/29 02:25:46;;;;;;;0.00;0.00;;;;;;;-144.99;100.00;67352.69;4949260;28;20203;-80
2023/10/29 02:28:11;;;;;;;0.10;0.10;;;;;;;-144.99;100.00;67352.69;4973193;28;20204;-79
2023/10/29 02:30:36;;;;;;;6.00;0.27;;;;;;;-144.99;100.00;67352.69;4967116;28;20211;-79
2023/10/29 02:33:02;;;;;;;1.53;0.57;;;;;;;-144.99;100.00;67352.69;4990608;28;20209;-79
2023/10/29 02:35:28;;;;;;;0.17;0.17;;;;;;;-144.99;100.00;67352.69;4947571;28;20195;-79
2023/10/29 02:37:54;;;;;;;0.20;0.20;;;;;;;-144.99;100.00;67352.69;4990978;28;20180;-80
2023/10/29 02:40:20;;;;;;;0.00;0.00;;;;;;;-144.99;100.00;67352.69;4947841;28;20191;-79
2023/10/29 02:42:45;;;;;;;0.30;0.30;;;;;;;-144.99;100.00;67352.69;4948695;28;20183;-79
2023/10/29 02:45:11;;;;;;;1.73;0.67;;;;;;;-144.99;100.00;67352.69;4971915;28;20267;-79
2023/10/29 02:47:36;;;;;;;0.00;0.00;;;;;;;-144.99;100.00;67352.69;4965240;28;20244;-79
2023/10/29 02:50:02;;;;;;;0.33;0.20;;;;;;;-144.99;100.00;67352.69;4989323;28;20187;-79
2023/10/29 02:52:27;;;;;;;0.00;0.00;;;;;;;-144.99;100.00;67352.69;4947539;29;20265;-79
2023/10/29 02:54:52;;;;;;;0.00;0.00;;;;;;;-144.99;100.00;67352.69;4988798;28;20184;-80
2023/10/29 02:57:18;;;;;;;0.00;0.00;;;;;;;-144.99;100.00;67352.69;4948353;29;20206;-79
2023/10/29 02:59:43;;;;;;;0.00;0.00;;;;;;;-144.99;100.00;67352.69;4988569;28;20187;-80
2023/10/29 03:02:09;;;;;;;0.00;0.00;;;;;;;-144.99;100.00;67352.69;4948527;29;20702;-80
2023/10/29 03:04:34;;;;;;;0.10;0.10;;;;;;;-144.99;100.00;67352.69;4960192;28;20192;-79
2023/10/29 03:07:00;;;;;;;0.30;0.30;;;;;;;-144.99;100.00;67352.69;4948343;28;20191;-80
2023/10/29 03:09:25;;;;;;;0.20;0.10;;;;;;;-144.99;100.00;67352.69;4947614;28;20198;-80
2023/10/29 03:11:50;;;;;;;0.00;0.00;;;;;;;-144.99;100.00;67352.69;4947932;28;20207;-80
2023/10/29 03:14:16;;;;;;;0.40;0.40;;;;;;;-144.99;100.00;67352.69;4974738;28;20176;-79
2023/10/29 03:16:41;;;;;;;0.00;0.00;;;;;;;-144.99;100.00;67352.69;5003866;28;20200;-80
2023/10/29 03:19:07;;;;;;;0.10;0.00;;;;;;;-144.99;100.00;67352.69;4947881;29;20209;-80
2023/10/29 03:21:32;;;;;;;8.90;0.37;;;;;;;-144.99;100.00;67352.69;4989834;28;20557;-80
2023/10/29 03:23:57;;;;;;;0.10;0.10;;;;;;;-144.99;100.00;67352.69;4947607;28;20198;-79
2023/10/29 03:26:23;;;;;;;0.00;0.00;;;;;;;-144.99;100.00;67352.69;4947308;28;20179;-80
2023/10/29 03:28:49;;;;;;;0.60;0.60;;;;;;;-144.99;100.00;67352.69;4947263;28;20695;-80
2023/10/29 03:31:15;;;;;;;0.00;0.00;;;;;;;-144.99;100.00;67352.69;4989375;28;20253;-80
2023/10/29 03:33:40;;;;;;;0.00;0.00;;;;;;;-144.99;100.00;67352.69;4989017;28;20187;-79
2023/10/29 03:36:07;;;;;;;0.17;0.17;;;;;;;-144.99;100.00;67352.69;4947058;28;20286;-80
2023/10/29 03:38:32;;;;;;;0.00;0.00;;;;;;;-144.99;100.00;67352.69;4984411;28;20183;-79
2023/10/29 03:40:58;;;;;;;0.00;0.00;;;;;;;-144.99;100.00;67352.69;4948284;28;20542;-79
2023/10/29 03:43:23;;;;;;;0.10;0.10;;;;;;;-144.99;100.00;67352.69;4978590;28;20678;-80
2023/10/29 03:45:48;;;;;;;3.80;0.40;;;;;;;-144.99;100.00;67352.69;4956774;28;20179;-79
2023/10/29 03:48:15;;;;;;;0.47;0.47;;;;;;;-144.99;100.00;67352.69;4946984;29;20191;-79
2023/10/29 03:50:40;;;;;;;0.00;0.00;;;;;;;-144.99;100.00;67352.69;4987341;28;20211;-79
2023/10/29 03:53:06;;;;;;;0.00;0.00;;;;;;;-144.99;100.00;67352.69;4986442;28;20183;-79
2023/10/29 03:55:32;;;;;;;0.20;0.20;;;;;;;-144.99;100.00;67352.69;4947586;28;20183;-80
2023/10/29 03:57:57;;;;;;;0.87;0.53;;;;;;;-144.99;100.00;67352.69;4948006;28;20229;-80
2023/10/29 04:00:22;;;;;;;0.00;0.00;;;;;;;-144.99;100.00;67352.69;4948476;28;20191;-80
2023/10/29 04:02:48;;;;;;;0.00;0.00;;;;;;;-144.99;100.00;67352.69;4988662;28;20191;-80
2023/10/29 04:05:14;;;;;;;0.00;0.00;;;;;;;-144.99;100.00;67352.69;4988895;28;20182;-79
2023/10/29 04:07:40;;;;;;;0.53;0.30;;;;;;;-144.99;100.00;67352.69;4947749;28;20196;-80
2023/10/29 04:10:06;;;;;;;0.00;0.00;;;;;;;-144.99;100.00;67352.69;4948531;29;20646;-80
2023/10/29 04:12:32;;;;;;;2.40;0.20;;;;;;;-144.99;100.00;67352.69;4989249;28;20222;-80
2023/10/29 04:14:58;;;;;;;0.93;0.47;;;;;;;-144.99;100.00;67352.69;4988535;28;20199;-80
2023/10/29 04:17:24;;;;;;;5.73;1.37;;;;;;;-144.99;100.00;67352.69;4947806;28;20215;-79
2023/10/29 04:19:49;;;;;;;0.10;0.10;;;;;;;-144.99;100.00;67352.69;4989410;28;20187;-80
2023/10/29 04:22:15;;;;;;;0.00;0.00;;;;;;;-144.99;100.00;67352.69;4973676;28;20195;-80
2023/10/29 04:24:40;;;;;;;0.30;0.30;;;;;;;-144.99;100.00;67352.69;4964477;28;20219;-80
2023/10/29 04:27:06;;;;;;;0.87;0.27;;;;;;;-144.99;100.00;67352.69;4986856;28;20198;-80
2023/10/29 04:29:31;;;;;;;0.40;0.40;;;;;;;-144.99;100.00;67352.69;4989479;28;20183;-80
2023/10/29 04:31:56;;;;;;;0.23;0.23;;;;;;;-144.99;100.00;67352.69;4988582;28;20245;-80
2023/10/29 04:34:22;;;;;;;0.23;0.23;;;;;;;-144.99;100.00;67352.69;4977049;28;20210;-80
2023/10/29 04:36:51;;;;;;;0.50;0.30;;;;;;;-144.99;100.00;67352.69;4961600;28;20191;-80
2023/10/29 04:39:18;;;;;;;0.20;0.20;;;;;;;-144.99;100.00;67352.69;4977710;28;20636;-79
2023/10/29 04:41:44;;;;;;;1.27;0.60;;;;;;;-144.99;100.00;67352.69;4986553;28;20202;-79
2023/10/29 04:44:09;;;;;;;0.10;0.10;;;;;;;-144.99;100.00;67352.69;4944828;28;20179;-79
2023/10/29 04:46:34;;;;;;;0.13;0.10;;;;;;;-144.99;100.00;67352.69;4982817;28;20195;-79
2023/10/29 04:49:00;;;;;;;0.23;0.23;;;;;;;-144.99;100.00;67352.69;4962880;28;20191;-79
2023/10/29 04:51:26;;;;;;;3.17;0.90;;;;;;;-144.99;100.00;67352.69;4970476;28;20211;-79
2023/10/29 04:53:51;;;;;;;0.10;0.10;;;;;;;-144.99;100.00;67352.69;4945028;28;20175;-79
2023/10/29 04:56:17;;;;;;;0.87;0.57;;;;;;;-144.99;100.00;67352.69;4984564;28;20263;-79
2023/10/29 04:58:42;;;;;;;0.10;0.10;;;;;;;-144.99;100.00;67352.69;4985792;28;20679;-79
2023/10/29 05:01:08;;;;;;;0.10;0.07;;;;;;;-144.99;100.00;67352.69;4985331;28;20206;-79
2023/10/29 05:03:33;;;;;;;0.50;0.50;;;;;;;-144.99;100.00;67352.69;4944577;28;20190;-79
2023/10/29 05:05:59;;;;;;;0.00;0.00;;;;;;;-144.99;100.00;67352.69;4985690;28;20180;-79
2023/10/29 05:08:24;;;;;;;0.40;0.40;;;;;;;-144.99;100.00;67352.69;4985533;28;20187;-79
2023/10/29 05:10:49;;;;;;;0.40;0.40;;;;;;;-144.99;100.00;67352.69;4992860;28;20222;-79
2023/10/29 05:13:15;;;;;;;0.27;0.13;;;;;;;-144.99;100.00;67352.69;4975113;28;20202;-79
2023/10/29 05:15:40;;;;;;;0.00;0.00;;;;;;;-144.99;100.00;67352.69;4945611;28;20187;-79
2023/10/29 05:18:05;;;;;;;0.50;0.17;;;;;;;-144.99;100.00;67352.69;4983334;28;20184;-79
2023/10/29 05:20:31;;;;;;;0.00;0.00;;;;;;;-144.99;100.00;67352.69;4980950;28;20561;-79
2023/10/29 05:22:57;;;;;;;1.40;0.60;;;;;;;-144.99;100.00;67352.69;4989853;28;20541;-79
2023/10/29 05:25:23;;;;;;;0.50;0.50;;;;;;;-144.99;100.00;67352.69;4984185;28;20190;-79
2023/10/29 05:27:52;;;;;;;0.00;0.00;;;;;;;-144.99;100.00;67352.69;4943664;28;20279;-79
2023/10/29 05:30:19;;;;;;;1.40;0.60;;;;;;;-144.99;100.00;67352.69;4984002;28;20568;-79
2023/10/29 05:32:44;;;;;;;0.00;0.00;;;;;;;-144.99;100.00;67352.69;4984320;28;20179;-79
2023/10/29 05:35:09;;;;;;;0.40;0.40;;;;;;;-144.99;100.00;67352.69;4983444;28;20186;-79
2023/10/29 05:37:35;;;;;;;0.00;0.00;;;;;;;-144.99;100.00;67352.69;4942133;29;20258;-79
2023/10/29 05:40:04;;;;;;;0.93;0.30;;;;;;;-144.99;100.00;67352.69;4985151;28;20536;-79
2023/10/29 05:42:33;;;;;;;0.30;0.20;;;;;;;-144.99;100.00;67352.69;4983241;28;20203;-79
2023/10/29 05:45:00;;;;;;;3.63;0.30;;;;;;;-144.99;100.00;67352.69;4985765;28;20183;-79
2023/10/29 05:47:25;;;;;;;1.40;0.50;;;;;;;-144.99;100.00;67352.69;4943896;28;20531;-79
2023/10/29 05:49:50;;;;;;;0.50;0.50;;;;;;;-144.99;100.00;67352.69;4983234;28;20213;-79
2023/10/29 05:52:15;;;;;;;0.10;0.10;;;;;;;-144.99;100.00;67352.69;4943696;28;20200;-79
2023/10/29 05:54:41;;;;;;;3.60;0.50;;;;;;;-144.99;100.00;67352.69;4943750;28;20172;-79
2023/10/29 05:57:07;;;;;;;0.30;0.30;;;;;;;-144.99;100.00;67352.69;4943587;28;20211;-79
2023/10/29 05:59:32;;;;;;;0.27;0.20;;;;;;;-144.99;100.00;67352.69;4984756;28;20183;-79
2023/10/29 06:01:58;;;;;;;0.87;0.50;;;;;;;-144.99;100.00;67352.69;4942838;28;20211;-79
2023/10/29 06:04:23;;;;;;;0.03;0.03;;;;;;;-144.99;100.00;67352.69;4984409;28;20175;-79
2023/10/29 06:06:51;;;;;;;3.90;0.30;;;;;;;-144.99;100.00;67352.69;4982871;28;20178;-79
2023/10/29 06:09:27;;;;;;;8.57;0.60;;;;;;;-144.99;100.00;67352.69;4993244;28;20253;-80
2023/10/29 06:11:52;;;;;;;0.43;0.20;;;;;;;-144.99;100.00;67352.69;5006553;28;20651;-80
2023/10/29 06:14:18;;;;;;;0.53;0.53;;;;;;;-144.99;100.00;67352.69;5015242;28;20203;-80
2023/10/29 06:16:43;;;;;;;0.67;0.47;;;;;;;-144.99;100.00;67352.69;4973658;28;20663;-82
2023/10/29 06:19:09;;;;;;;0.63;0.40;;;;;;;-144.99;100.00;67352.69;5015259;28;20253;-80
2023/10/29 06:21:34;;;;;;;2.93;0.30;;;;;;;-144.99;100.00;67352.69;5014995;28;20278;-80
2023/10/29 06:24:00;;;;;;;0.00;0.00;;;;;;;-144.99;100.00;67352.69;4957384;28;20186;-80
2023/10/29 06:26:25;;;;;;;0.20;0.20;;;;;;;-144.99;100.00;67352.69;4954321;28;20183;-82
2023/10/29 06:28:51;;;;;;;0.27;0.27;;;;;;;-144.99;100.00;67352.69;5006691;28;20193;-80
2023/10/29 06:31:16;;;;;;;0.10;0.00;;;;;;;-144.99;100.00;67352.69;4987876;28;20198;-80
2023/10/29 06:33:42;;;;;;;0.40;0.40;;;;;;;-144.99;100.00;67352.69;4956711;28;20191;-82
2023/10/29 06:36:08;;;;;;;0.87;0.70;;;;;;;-144.99;100.00;67352.69;4994144;28;20277;-79
2023/10/29 06:38:33;;;;;;;0.67;0.40;;;;;;;-144.99;100.00;67352.69;4953794;29;20187;-79
2023/10/29 06:40:59;;;;;;;0.10;0.10;;;;;;;-144.99;100.00;67352.69;4953593;28;20739;-79
2023/10/29 06:43:24;;;;;;;0.57;0.10;;;;;;;-144.99;100.00;67352.69;4955163;28;20191;-79
2023/10/29 06:45:49;;;;;;;0.77;0.37;;;;;;;-144.99;100.00;67352.69;4997374;28;20201;-79
2023/10/29 06:48:15;;;;;;;0.23;0.23;;;;;;;-144.99;100.00;67352.69;4981290;28;20581;-79
2023/10/29 06:50:44;;;;;;;0.87;0.87;;;;;;;-144.99;100.00;67352.69;4968754;28;20202;-79
2023/10/29 06:53:09;;;;;;;0.30;0.30;;;;;;;-144.99;100.00;67352.69;4953503;28;20281;-79
2023/10/29 06:55:40;;;;;;;0.50;0.30;;;;;;;-144.99;100.00;67352.69;4995473;28;20274;-79
2023/10/29 06:58:05;;;;;;;0.13;0.13;;;;;;;-144.99;100.00;67352.69;4953393;28;20186;-79
2023/10/29 07:00:31;;;;;;;0.20;0.20;;;;;;;-144.99;100.00;67352.69;4954582;28;20202;-79
2023/10/29 07:02:57;;;;;;;0.00;0.00;;;;;;;-144.99;100.00;67352.69;4954726;28;20183;-79
2023/10/29 07:05:22;;;;;;;0.47;0.47;;;;;;;-144.99;100.00;67352.69;4954710;28;20181;-79
2023/10/29 07:07:48;;;;;;;0.03;0.03;;;;;;;-144.99;100.00;67352.69;5002445;28;20209;-79
2023/10/29 07:10:13;;;;;;;0.30;0.10;;;;;;;-144.99;100.00;67352.69;4988097;28;20178;-79
2023/10/29 07:12:38;;;;;;;1.20;0.20;;;;;;;-144.99;100.00;67352.69;4955012;28;20321;-79
2023/10/29 07:15:04;;;;;;;0.47;0.47;;;;;;;-144.99;100.00;67352.69;4953028;28;20186;-79
2023/10/29 07:17:30;;;;;;;0.50;0.20;;;;;;;-144.99;100.00;67352.69;4952768;28;20215;-79
2023/10/29 07:19:55;;;;;;;0.20;0.20;;;;;;;-144.99;100.00;67352.69;4953453;28;20678;-80
2023/10/29 07:22:21;;;;;;;0.53;0.40;;;;;;;-144.99;100.00;67352.69;4994527;28;20213;-79
2023/10/29 07:24:46;;;;;;;3.93;0.30;;;;;;;-144.99;100.00;67352.69;4955012;28;20182;-79
2023/10/29 07:27:11;;;;;;;0.23;0.23;;;;;;;-144.99;100.00;67352.69;4978832;28;20183;-79
2023/10/29 07:29:37;;;;;;;0.10;0.10;;;;;;;-144.99;100.00;67352.69;4973507;28;20269;-80
2023/10/29 07:32:03;;;;;;;2.30;2.10;;;;;;;-144.99;100.00;67352.69;4954973;28;20289;-79
2023/10/29 07:34:28;;;;;;;1.77;1.00;;;;;;;-144.99;100.00;67352.69;4955826;28;20178;-79
2023/10/29 07:36:53;;;;;;;0.10;0.10;;;;;;;-144.99;100.00;67352.69;4955196;28;20736;-79
2023/10/29 07:39:19;;;;;;;0.83;0.83;;;;;;;-144.99;100.00;67352.69;4954841;28;20228;-79
2023/10/29 07:41:44;;;;;;;2.37;0.83;;;;;;;-144.99;100.00;67352.69;4996587;28;20741;-79
2023/10/29 07:44:09;;;;;;;0.37;0.37;;;;;;;-144.99;100.00;67352.69;4955492;28;20675;-80
2023/10/29 07:46:34;;;;;;;0.40;0.33;;;;;;;-144.99;100.00;67352.69;4953844;28;20213;-80
2023/10/29 07:49:01;;;;;;;0.30;0.30;;;;;;;-144.99;100.00;67352.69;4996471;28;20174;-79
2023/10/29 07:51:26;;;;;;;0.20;0.20;;;;;;;-144.99;100.00;67352.69;4955009;28;20210;-79
2023/10/29 07:53:52;;;;;;;0.00;0.00;;;;;;;-144.99;100.00;67352.69;4964608;28;20187;-80
2023/10/29 07:56:19;;;;;;;0.80;0.60;;;;;;;-144.99;100.00;67352.69;5012631;28;20303;-80
2023/10/29 07:58:46;;;;;;;0.00;0.00;;;;;;;-144.99;100.00;67352.69;4968886;28;20184;-80
2023/10/29 08:01:12;;;;;;;12.43;0.40;;;;;;;-144.99;100.00;67352.69;4995421;28;20676;-79
2023/10/29 08:03:39;;;;;;;0.50;0.20;;;;;;;-144.99;100.00;67352.69;4969945;28;20269;-79
2023/10/29 08:06:05;;;;;;;2.83;1.20;;;;;;;-144.99;100.00;67352.69;5001047;28;20175;-79
2023/10/29 08:08:30;;;;;;;0.40;0.40;;;;;;;-144.99;100.00;67352.69;4950924;28;20203;-80
2023/10/29 08:10:55;;;;;;;0.00;0.00;;;;;;;-144.99;100.00;67352.69;4997030;28;20199;-79
2023/10/29 08:13:21;;;;;;;0.43;0.40;;;;;;;-144.99;100.00;67352.69;4984936;28;20316;-80
2023/10/29 08:15:46;;;;;;;4.27;1.20;;;;;;;-144.99;100.00;67352.69;4963462;28;20266;-80
2023/10/29 08:18:11;;;;;;;1.70;0.90;;;;;;;-144.99;100.00;67352.69;4967104;28;20609;-79
2023/10/29 08:20:37;;;;;;;0.50;0.30;;;;;;;-144.99;100.00;67352.69;4953909;28;20202;-80
2023/10/29 08:23:02;;;;;;;1.50;0.53;;;;;;;-144.99;100.00;67352.69;4955060;28;20248;-80
2023/10/29 08:25:28;;;;;;;0.57;0.40;;;;;;;-144.99;100.00;67352.69;4954851;28;20190;-79
2023/10/29 08:27:53;;;;;;;0.70;0.50;;;;;;;-144.99;100.00;67352.69;4955406;28;20181;-80
2023/10/29 08:30:18;;;;;;;0.20;0.20;;;;;;;-144.99;100.00;67352.69;4965074;28;20170;-80
2023/10/29 08:32:44;;;;;;;0.63;0.27;;;;;;;-144.99;100.00;67352.69;4964919;28;20175;-80
2023/10/29 08:35:09;;;;;;;0.30;0.20;;;;;;;-144.99;100.00;67352.69;4954663;28;20183;-80
2023/10/29 08:37:35;;;;;;;0.20;0.20;;;;;;;-144.99;100.00;67352.69;4954300;28;20267;-80
2023/10/29 08:40:01;;;;;;;5.07;0.43;;;;;;;-144.99;100.00;67352.69;4965615;28;20229;-80
2023/10/29 08:42:30;;;;;;;0.73;0.30;;;;;;;-144.99;100.00;67352.69;4951868;28;20286;-79
2023/10/29 08:44:59;;;;;;;0.30;0.30;;;;;;;-144.99;100.00;67352.69;4961955;28;20202;-79
2023/10/29 08:47:29;;;;;;;0.67;0.43;;;;;;;-144.99;100.00;67352.69;4957081;28;20174;-78
2023/10/29 08:49:54;;;;;;;6.30;0.73;;;;;;;-144.99;100.00;67352.69;4997350;28;20175;-79
2023/10/29 08:52:20;;;;;;;0.87;0.73;;;;;;;-144.99;100.00;67352.69;4996397;28;20202;-80
2023/10/29 08:54:45;;;;;;;0.20;0.20;;;;;;;-144.99;100.00;67352.69;4954908;28;20312;-80
2023/10/29 08:57:11;;;;;;;0.70;0.30;;;;;;;-144.99;100.00;67352.69;4952544;28;20297;-80
2023/10/29 08:59:36;;;;;;;0.50;0.30;;;;;;;-144.99;100.00;67352.69;4985970;28;20206;-80
2023/10/29 09:02:02;;;;;;;1.37;0.80;;;;;;;-144.99;100.00;67352.69;5003586;28;20278;-79
2023/10/29 09:04:27;;;;;;;2.27;0.90;;;;;;;-144.99;100.00;67352.69;4982217;28;20187;-80
2023/10/29 09:06:53;;;;;;;2.83;0.23;;;;;;;-144.99;100.00;67352.69;4960085;28;20316;-80
2023/10/29 09:09:18;;;;;;;0.20;0.10;;;;;;;-144.99;100.00;67352.69;4975145;28;20204;-81
2023/10/29 09:11:44;;;;;;;0.00;0.00;;;;;;;-144.99;100.00;67352.69;4957430;28;20206;-80
2023/10/29 09:14:13;;;;;;;0.20;0.20;;;;;;;-144.99;100.00;67352.69;4969904;22;20933;-87
2023/10/29 09:16:48;;;;;;;0.40;0.40;;;;;;;-144.99;100.00;67352.69;4967523;28;20256;-84
2023/10/29 09:19:16;;;;;;;0.10;0.10;;;;;;;-144.99;100.00;67352.69;4971478;28;20177;-89
2023/10/29 09:21:44;;;;;;;0.40;0.30;;;;;;;-144.99;100.00;67352.69;4971257;28;20212;-90
2023/10/29 09:24:11;;;;;;;0.83;0.83;;;;;;;-144.99;100.00;67352.69;4970059;28;20671;-92
2023/10/29 09:26:36;;;;;;;0.30;0.30;;;;;;;-144.99;100.00;67352.69;4971411;28;20178;-90
2023/10/29 09:29:03;;;;;;;0.37;0.27;;;;;;;-144.99;100.00;67352.69;5016802;28;20263;-91
2023/10/29 09:31:31;;;;;;;0.30;0.30;;;;;;;-144.99;100.00;67352.69;5013876;28;20651;-90
2023/10/29 09:33:56;;;;;;;0.07;0.07;;;;;;;-144.99;100.00;67352.69;4974218;28;20655;-90
2023/10/29 09:36:22;;;;;;;0.37;0.33;;;;;;;-144.99;100.00;67352.69;4970551;28;20213;-89
2023/10/29 09:38:48;;;;;;;0.73;0.50;;;;;;;-144.99;100.00;67352.69;4970081;28;20190;-89
2023/10/29 09:41:17;;;;;;;0.10;0.10;;;;;;;-144.99;100.00;67352.69;4993942;28;20656;-90
2023/10/29 09:43:43;;;;;;;0.40;0.10;;;;;;;-144.99;100.00;67352.69;4982781;28;20206;-86
2023/10/29 09:46:10;;;;;;;0.50;0.40;;;;;;;-144.99;100.00;67352.69;4972518;28;20238;-86
2023/10/29 09:48:37;;;;;;;0.17;0.17;;;;;;;-144.99;100.00;67352.69;4973383;28;20200;-91
2023/10/29 09:51:04;;;;;;;0.40;0.30;;;;;;;-144.99;100.00;67352.69;4997726;28;20700;-85
2023/10/29 09:53:31;;;;;;;0.73;0.70;;;;;;;-144.99;100.00;67352.69;4973148;28;20323;-89
2023/10/29 09:56:00;;;;;;;0.83;0.40;;;;;;;-144.99;100.00;67352.69;5014148;28;20205;-88
2023/10/29 09:58:27;;;;;;;0.40;0.10;;;;;;;-144.99;100.00;67352.69;4973161;28;20211;-86
2023/10/29 10:00:53;;;;;;;0.10;0.10;;;;;;;-144.99;100.00;67352.69;4973127;28;20240;-87
2023/10/29 10:03:18;;;;;;;0.40;0.40;;;;;;;-144.99;100.00;67352.69;4971879;28;20190;-87
2023/10/29 10:05:45;;;;;;;3.40;0.20;;;;;;;-144.99;100.00;67352.69;4971820;28;20723;-87
2023/10/29 10:08:11;;;;;;;0.00;0.00;;;;;;;-144.99;100.00;67352.69;4972024;28;20221;-86
2023/10/29 10:10:41;;;;;;;0.60;0.60;;;;;;;-144.99;100.00;67352.69;4973073;28;20218;-86
2023/10/29 10:13:30;;;;;;;0.00;0.00;;;;;;;-144.99;100.00;67352.69;4971935;28;20185;-91
2023/10/29 10:16:05;;;;;;;0.00;0.00;;;;;;;-144.99;100.00;67352.69;4971936;28;20339;-87
2023/10/29 10:18:50;;;;;;;0.17;0.17;;;;;;;-144.99;100.00;67352.69;4972575;28;20560;-86
2023/10/29 10:21:16;;;;;;;0.20;0.20;;;;;;;-144.99;100.00;67352.69;4971908;28;20189;-86
2023/10/29 10:23:54;;;;;;;0.00;0.00;;;;;;;-144.99;100.00;67352.69;4972550;28;20240;-86
2023/10/29 10:26:32;;;;;;;0.47;0.20;;;;;;;-144.99;100.00;67352.69;4972696;28;20644;-85
2023/10/29 10:28:59;;;;;;;0.00;0.00;;;;;;;-144.99;100.00;67352.69;4973344;28;20178;-86
2023/10/29 10:31:27;;;;;;;0.03;0.03;;;;;;;-144.99;100.00;67352.69;4975481;28;20257;-86
2023/10/29 10:34:11;;;;;;;0.00;0.00;;;;;;;-144.99;100.00;67352.69;4972216;28;20210;-86
2023/10/29 10:36:37;;;;;;;2.50;0.27;;;;;;;-144.99;100.00;67352.69;4971209;28;20631;-86
2023/10/29 10:39:02;;;;;;;0.00;0.00;;;;;;;-144.99;100.00;67352.69;5014851;28;20494;-86
2023/10/29 10:41:51;;;;;;;0.27;0.10;;;;;;;-144.99;100.00;67352.69;4973297;28;20186;-86
2023/10/29 10:44:20;;;;;;;0.13;0.13;;;;;;;-144.99;100.00;67352.69;4968601;28;20206;-86
2023/10/29 10:46:58;;;;;;;0.60;0.60;;;;;;;-144.99;100.00;67352.69;4971269;28;20193;-86
2023/10/29 10:49:24;;;;;;;0.10;0.10;;;;;;;-144.99;100.00;67352.69;4973551;28;20235;-86
2023/10/29 10:51:54;;;;;;;0.17;0.10;;;;;;;-144.99;100.00;67352.69;4980609;28;20193;-86
2023/10/29 10:54:20;;;;;;;2.10;0.20;;;;;;;-144.99;100.00;67352.69;5001676;28;20209;-86
2023/10/29 10:56:46;;;;;;;0.10;0.10;;;;;;;-144.99;100.00;67352.69;4976212;28;20213;-86
2023/10/29 10:59:13;;;;;;;0.10;0.10;;;;;;;-144.99;100.00;67352.69;5007391;28;20194;-86
2023/10/29 11:01:39;;;;;;;0.57;0.20;;;;;;;-144.99;100.00;67352.69;4971273;28;20239;-86
2023/10/29 11:04:08;;;;;;;0.13;0.13;;;;;;;-144.99;100.00;67352.69;4971416;28;20552;-86
2023/10/29 11:06:37;;;;;;;0.00;0.00;;;;;;;-144.99;100.00;67352.69;4972668;28;20184;-86